Detall de PIREP

Printer-friendly versionPDF version

[2013/03/31 06:17:00]
Flight IATA:CT0001
Pilot Number:041
Company ICAO:CAT
Aircraft Type:A320/E
PAX:91
Departing Airport: LELC
Destination Airport: LEGE
Alternate Airport:LEBL
Online: VATSIM
Route:DCT ALT B46 MITOS N608 SOPET B28 EBROX DCT LATRO H110 MAMUK DCT
Flight Level:F180
No Slew and time accel
No pause
Crash detect
Detect pilot in Cockpit between each 30 and 45 minutes
06:17 Zero fuel Weight: 134051 Lbs, Fuel Weight: 11468 Lbs
06:17 VATSIM:LELC 310600Z VRB02KT CAVOK 14/07 Q1011 NOSIG
06:17 VATSIM:LEGE 310600Z 00000KT 9999 VCFG FEW025 04/04 Q1006
06:18 VOICE CATALONIAN
06:25 Parking Brakes off
06:30 Take-off
06:30 Take off Weight: 144648 Lbs
06:30 Wind: 313º @ 005 Knots Heading: 043º
06:30 POS N37º 46´ 58´´ W000º 48´ 07´´
06:30 Flaps:3 at 177 Knots
06:30 Gear Up: 180 Knots
06:30 Flaps:2 at 195 Knots
06:30 Flaps:1 at 199 Knots
06:30 Flaps:2 at 210 Knots
06:30 Flaps:1 at 211 Knots
06:30 Flaps:0 at 219 Knots
06:36 TOC
06:36 Fuel Weight: 8465 Lb
06:45 Wind:292º@053 Knots Heading: 352º Ground Speed: 354 Knots Altitude 17883 ft
07:00 Wind:292º@035 Knots Heading: 042º Ground Speed: 390 Knots Altitude 17844 ft
07:13 TOD
07:13 Fuel Weight: 3312 Lb
07:15 Wind:291º@032 Knots Heading: 009º Ground Speed: 307 Knots Altitude 15318 ft
07:27 Flaps:1 at 204 Knots
07:27 Flaps:2 at 195 Knots
07:28 Flaps:4 at 180 Knots
07:28 Gear Down: 153 Knots
07:29 Flaps:5 at 144 Knots
07:30 Wind:072º@001 Knots Heading: 016º Ground Speed: 140 Knots Altitude 1099 ft
07:32 TouchDown:Rate -203 ft/min Speed: 129 Knots
07:32 Land
07:32 Wind:080º@001 Knots
07:32 Heading: 019º
07:32 Flight Duration: 01:02
07:32 Landing Weight: 135619 Lbs
07:32 POS N41º 54´ 27´´ E002º 45´ 47´´
07:35 Parking brakes on
07:35 Block to Block Duration: 01:10
07:35 Final Fuel: 1269 Lbls
07:35 Spent Fuel: 10198 Lbls
07:35 Flight Length: 343 NM
07:35 TOD Land Length: 80 NM

Exportar CSV

Powered by Drupal - Modified by Danger4k